Flight Track Log - Related Links

Times and Time Zones

All times are in EDT time to prevent confusion due to time zone crossing. See the SKQ45 flight status page for this flight to view local times or setup timezone preferences in your user account.

Time Position Orientation Groundspeed Altitude Reporting Facility
EDT Latitude Longitude Course Direction KTS MPH feet Rate Location/Type
Mon 08:31:53 PM 36.0675 -79.5947 282° West 173 199 5,500  Level Atlanta Center
Mon 08:32:53 PM 36.0714 -79.6408 276° West 166 191 7,300 1,850 Climbing Atlanta Center
Mon 08:33:53 PM 36.0775 -79.6969 278° West 159 183 9,200 1,700 Climbing Atlanta Center
Mon 08:34:53 PM 36.0833 -79.7481 278° West 159 183 10,700 1,350 Climbing Atlanta Center
Mon 08:35:53 PM 36.0958 -79.8092 284° West 165 190 11,900 600 Climbing Atlanta Center
Mon 08:36:00 PM 36.1000 -79.8465 270° West  Level FlightAware Approximate
Mon 08:36:53 PM 36.1214 -79.8822 293° West 193 222 11,900  Level Atlanta Center
Mon 08:37:00 PM 36.1121 -79.9228 282° West  Level FlightAware Approximate
Mon 08:37:53 PM 36.1464 -79.9478 295° West 209 241 13,700  Level Atlanta Center
Mon 08:38:53 PM 36.1669 -79.9956 298° West 193 222 15,600 1,150 Climbing Atlanta Center
Mon 08:39:53 PM 36.1917 -80.0561 297° West 183 211 16,000 200 Climbing Atlanta Center
Mon 08:40:53 PM 36.2208 -80.1192 300° West 202 232 16,000  Level Atlanta Center
Mon 08:41:53 PM 36.2564 -80.1842 304° West 223 257 16,000 900 Level Atlanta Center
Mon 08:42:53 PM 36.2894 -80.2444 304° West 228 262 17,800 1,550 Climbing Atlanta Center
Mon 08:43:53 PM 36.3161 -80.2922 305° West 197 227 19,100 1,100 Climbing Atlanta Center
Mon 08:44:53 PM 36.3303 -80.3533 286° West 179 206 20,000 450 Climbing Atlanta Center
Mon 08:45:53 PM 36.3389 -80.4303 278° West 188 216 20,000  Level Atlanta Center
Mon 08:46:53 PM 36.3472 -80.5047 278° West 210 242 20,000  Level Atlanta Center
Mon 08:47:53 PM 36.3578 -80.5817 280° West 240 276 20,000  Level Atlanta Center
Mon 08:48:53 PM 36.3708 -80.6714 280° West 252 290 20,000  Level Atlanta Center
Mon 08:49:53 PM 36.3794 -80.7561 277° West 252 290 20,000  Level Atlanta Center
Mon 08:50:53 PM 36.3897 -80.8356 279° West 247 284 20,000  Level Atlanta Center
Mon 08:51:53 PM 36.4003 -80.9175 279° West 247 284 20,000  Level Atlanta Center
Mon 08:52:53 PM 36.4086 -81.0000 277° West 241 277 20,000  Level Atlanta Center
Mon 08:53:53 PM 36.4189 -81.0847 279° West 241 277 20,000  Level Atlanta Center
Mon 08:54:53 PM 36.4272 -81.1642 277° West 241 277 20,000  Level Atlanta Center
Mon 08:55:53 PM 36.4394 -81.2492 280° West 236 272 20,000  Level Atlanta Center
Mon 08:56:53 PM 36.4475 -81.3289 277° West 236 272 20,000  Level Atlanta Center
Mon 08:57:53 PM 36.4556 -81.4136 277° West 236 272 20,000  Level Atlanta Center
Mon 08:58:53 PM 36.4658 -81.4958 279° West 241 277 20,000  Level Atlanta Center
Mon 08:59:53 PM 36.4758 -81.5808 278° West 241 277 20,000  Level Atlanta Center
Mon 09:00:53 PM 36.4836 -81.6528 278° West 241 277 20,000  Level Atlanta Center
Mon 09:01:53 PM 36.4933 -81.7353 278° West 241 277 20,000  Level Atlanta Center
Mon 09:02:53 PM 36.5033 -81.8175 279° West 241 277 20,000  Level Atlanta Center
Mon 09:03:53 PM 36.5089 -81.9000 275° West 241 277 20,000  Level Atlanta Center
Mon 09:04:53 PM 36.5186 -81.9850 278° West 241 277 20,000  Level Atlanta Center
Mon 09:05:53 PM 36.5283 -82.0675 278° West 241 277 20,000  Level Atlanta Center
Mon 09:06:53 PM 36.5358 -82.1525 276° West 241 277 20,000  Level Atlanta Center
Mon 09:07:53 PM 36.5456 -82.2350 278° West 246 283 20,000  Level Atlanta Center
Mon 09:08:53 PM 36.5550 -82.3200 278° West 246 283 20,000  Level Atlanta Center
Mon 09:09:53 PM 36.5647 -82.4053 278° West 246 283 20,000  Level Atlanta Center
Mon 09:10:53 PM 36.5719 -82.4853 276° West 252 290 20,000  Level Atlanta Center
Mon 09:11:53 PM 36.5792 -82.5703 276° West 252 290 20,000  Level Atlanta Center
Mon 09:12:53 PM 36.5906 -82.6556 279° West 252 290 20,000  Level Atlanta Center
Mon 09:13:53 PM 36.5978 -82.7381 276° West 252 290 20,000  Level Atlanta Center
Mon 09:14:53 PM 36.6050 -82.8233 276° West 252 290 20,000  Level Atlanta Center
Mon 09:17:01 PM 36.6261 -83.0075 278° West 246 283 20,000  Level Indianapolis Center
Mon 09:18:02 PM 36.6350 -83.0919 277° West 245 282 20,000  Level Indianapolis Center
Mon 09:19:03 PM 36.6433 -83.1753 277° West 243 280 20,000  Level Indianapolis Center
Mon 09:20:04 PM 36.6517 -83.2594 277° West 243 280 20,000  Level Indianapolis Center
Mon 09:21:05 PM 36.6594 -83.3439 277° West 244 281 20,000  Level Indianapolis Center
Mon 09:22:07 PM 36.6678 -83.4258 277° West 241 277 20,000  Level Indianapolis Center
Mon 09:23:08 PM 36.6756 -83.5081 277° West 238 274 20,000  Level Indianapolis Center
Mon 09:24:09 PM 36.6836 -83.5906 277° West 239 275 20,000  Level Indianapolis Center
Mon 09:25:10 PM 36.6911 -83.6725 277° West 238 274 20,000  Level Indianapolis Center
Mon 09:26:11 PM 36.6989 -83.7550 277° West 239 275 20,000  Level Indianapolis Center
Mon 09:27:13 PM 36.7078 -83.8531 276° West 243 280 20,000  Level Indianapolis Center
Mon 09:28:14 PM 36.7161 -83.9339 277° West 236 272 20,000  Level Indianapolis Center
Mon 09:29:15 PM 36.7236 -84.0158 277° West 236 272 20,000  Level Indianapolis Center
Mon 09:30:16 PM 36.7314 -84.0981 277° West 235 270 20,000  Level Indianapolis Center
Mon 09:31:17 PM 36.7369 -84.1781 275° West 232 267 20,000  Level Indianapolis Center
Mon 09:32:19 PM 36.7444 -84.2614 276° West 240 276 20,000  Level Indianapolis Center
Mon 09:33:20 PM 36.7522 -84.3414 277° West 234 269 20,000  Level Indianapolis Center
Mon 09:34:21 PM 36.7603 -84.4244 277° West 241 277 20,000  Level Indianapolis Center
Mon 09:35:22 PM 36.7672 -84.5108 276° West 235 270 20,000  Level Indianapolis Center
Mon 09:36:24 PM 36.7744 -84.5925 276° West 237 273 20,000  Level Indianapolis Center
Mon 09:37:25 PM 36.7817 -84.6756 276° West 241 277 20,000  Level Indianapolis Center
Mon 09:38:26 PM 36.7878 -84.7578 275° West 239 275 20,000  Level Indianapolis Center
Mon 09:39:27 PM 36.7956 -84.8411 277° West 242 278 20,000  Level Indianapolis Center
Mon 09:40:29 PM 36.8028 -84.9247 276° West 243 280 20,000  Level Indianapolis Center
Mon 09:41:30 PM 36.8111 -85.0261 276° West 245 282 20,000  Level Indianapolis Center
Mon 09:42:31 PM 36.8183 -85.1097 276° West 245 282 20,000  Level Indianapolis Center
Mon 09:43:32 PM 36.8242 -85.1931 275° West 243 280 20,000  Level Indianapolis Center
Mon 09:44:34 PM 36.8314 -85.2761 276° West 242 278 20,000  Level Indianapolis Center
Mon 09:45:35 PM 36.8369 -85.3594 275° West 241 277 20,000  Level Indianapolis Center
Mon 09:46:36 PM 36.8436 -85.4431 276° West 242 278 20,000  Level Indianapolis Center
Mon 09:47:37 PM 36.8500 -85.5236 276° West 243 280 20,000  Level Indianapolis Center
Mon 09:48:34 PM 36.8558 -85.6144 275° West 247 284 20,000  Level Memphis Center
Mon 09:49:34 PM 36.8653 -85.6997 278° West 242 278 20,000  Level Memphis Center
Mon 09:50:34 PM 36.8703 -85.7822 274° West 242 278 20,000  Level Memphis Center
Mon 09:51:34 PM 36.8778 -85.8675 276° West 247 284 20,000  Level Memphis Center
Mon 09:52:34 PM 36.8828 -85.9528 274° West 252 290 20,000  Level Memphis Center
Mon 09:53:34 PM 36.8900 -86.0381 276° West 252 290 20,000  Level Memphis Center
Mon 09:54:34 PM 36.8950 -86.1208 274° West 252 290 20,000  Level Memphis Center
Mon 09:55:34 PM 36.9019 -86.2033 276° West 252 290 20,000  Level Memphis Center
Mon 09:56:34 PM 36.9089 -86.2886 276° West 252 290 20,000  Level Memphis Center
Mon 09:57:34 PM 36.9158 -86.3714 276° West 252 290 20,000  Level Memphis Center
Mon 09:58:34 PM 36.9206 -86.4567 274° West 252 290 20,000  Level Memphis Center
Mon 09:59:34 PM 36.9269 -86.5317 276° West 252 290 20,000  Level Memphis Center
Mon 10:00:34 PM 36.9317 -86.6169 274° West 252 290 20,000  Level Memphis Center
Mon 10:02:34 PM 36.9428 -86.7853 275° West 252 290 20,000  Level Memphis Center
Mon 10:03:34 PM 36.9494 -86.8681 276° West 252 290 20,000  Level Memphis Center
Mon 10:04:34 PM 36.9561 -86.9533 276° West 252 290 20,000  Level Memphis Center
Mon 10:05:34 PM 36.9603 -87.0389 274° West 252 290 20,000  Level Memphis Center
Mon 10:06:34 PM 36.9667 -87.1244 275° West 252 290 20,000 -450 Level Memphis Center
Mon 10:07:34 PM 36.9714 -87.2203 274° West 252 290 19,100 -900 Descending Memphis Center
Mon 10:08:34 PM 36.9778 -87.3161 275° West 258 297 18,200 -850 Descending Memphis Center
Mon 10:09:34 PM 36.9822 -87.4094 273° West 270 311 17,400 -900 Descending Memphis Center
Mon 10:10:34 PM 36.9886 -87.5053 275° West 275 316 16,400 -1,000 Descending Memphis Center
Mon 10:11:34 PM 36.9950 -87.5986 275° West 270 311 15,400 -1,000 Descending Memphis Center
Mon 10:12:34 PM 37.0011 -87.6917 275° West 270 311 14,400 -950 Descending Memphis Center
Mon 10:13:34 PM 37.0072 -87.7878 275° West 270 311 13,500 -950 Descending Memphis Center
Mon 10:14:34 PM 37.0111 -87.8786 273° West 275 316 12,500 -1,000 Descending Memphis Center
Mon 10:15:34 PM 37.0194 -87.9717 276° West 270 311 11,500 -700 Descending Memphis Center
Mon 10:16:34 PM 37.0231 -88.0625 273° West 270 311 11,100 -700 Descending Memphis Center
Mon 10:17:34 PM 37.0308 -88.1481 277° West 270 311 10,100 -1,250 Descending Memphis Center
Mon 10:18:34 PM 37.0325 -88.2311 271° West 265 305 8,600 -1,400 Descending Memphis Center
Mon 10:19:34 PM 37.0400 -88.3194 276° West 260 299 7,300 -1,350 Descending Memphis Center
Mon 10:20:34 PM 37.0436 -88.4078 273° West 255 293 5,900 -1,250 Descending Memphis Center
Mon 10:21:34 PM 37.0469 -88.4961 273° West 255 293 4,800 -950 Descending Memphis Center
Mon 10:22:34 PM 37.0503 -88.5792 273° West 250 288 4,000 -1,000 Descending Memphis Center
Mon 10:23:34 PM 37.0533 -88.6389 274° West 218 251 2,800 -1,300 Descending Memphis Center
Mon 10:24:34 PM 37.0456 -88.6908 259° West 176 203 1,400 -800 Descending Memphis Center
Mon 10:25:34 PM 37.0422 -88.7378 265° West 155 178 1,200 -300 Descending Memphis Center
Mon 10:26:34 PM 37.0408 -88.7975 268° West 150 173 800 1,400 Descending Memphis Center
Mon 10:27:34 PM 37.0372 -88.8497 265° West 150 173 4,000 3,200 Climbing Memphis Center

Login

Don't have an account? Register now (free) for customized features, flight alerts, and more!